Crooked Lake, Indiana
Current Conditions -  °F | °C
As of 11:35 AM on Sunday 23 Nov 2014 (Local Time) from KANQ Reporting Station
Scattered Clouds Scattered Clouds  
Wind Chill: 46°   Ceiling: Unl
Heat Index: 48°   Visibility: 10mi
Dew Point: 37°   Wind: 5mph
Humidity: 66%   Direction: 160°SSE
Pressure: 29.83"   Gusts: NA
Location:  41.6594°N, 85.0055°W
Report Text: KANQ 231635Z AUTO 16004KT 10SM FEW021 SCT080 09/03 A2983 RMK
Loading
Personal Weather Stations






























Interactive Weather Map New forecast layout! Learn more

10-Day Weather Forecast

Advertisements
Track Severe Weather on mobile